createdAt,value
2022-10-06T00:01:48.210Z,94973.00
2022-10-06T00:05:52.039Z,94968.00
2022-10-06T00:09:53.931Z,94971.00
2022-10-06T00:13:56.149Z,94970.00
2022-10-06T00:17:58.764Z,94978.00
2022-10-06T00:22:02.208Z,94972.00
2022-10-06T00:26:05.774Z,94971.00
2022-10-06T00:30:14.382Z,94972.00
2022-10-06T00:34:17.814Z,94962.00
2022-10-06T00:38:20.039Z,94958.00
2022-10-06T00:42:35.606Z,94940.00
2022-10-06T00:46:45.580Z,94952.00
2022-10-06T00:50:48.504Z,94936.00
2022-10-06T00:54:57.590Z,94927.00
2022-10-06T00:59:00.679Z,94924.00
2022-10-06T01:03:21.724Z,94918.00
2022-10-06T01:07:28.770Z,94935.00
2022-10-06T01:11:34.219Z,94941.00
2022-10-06T01:15:46.124Z,94947.00
2022-10-06T01:20:04.110Z,94959.00
2022-10-06T01:24:10.133Z,94941.00
2022-10-06T01:28:19.023Z,94957.00
2022-10-06T01:32:28.672Z,94953.00
2022-10-06T01:36:34.498Z,94954.00
2022-10-06T01:40:39.682Z,94950.00
2022-10-06T01:44:44.355Z,94964.00
2022-10-06T01:48:59.388Z,94958.00
2022-10-06T01:53:02.185Z,94954.00
2022-10-06T01:57:11.207Z,94952.00
2022-10-06T02:01:13.747Z,94972.00
2022-10-06T02:05:17.444Z,94968.00
2022-10-06T02:09:25.557Z,94976.00
2022-10-06T02:13:31.656Z,94982.00
2022-10-06T02:17:34.429Z,94984.00
2022-10-06T02:21:36.828Z,94982.00
2022-10-06T02:25:39.347Z,94991.00
2022-10-06T02:29:45.145Z,94991.00
2022-10-06T02:33:50.183Z,94998.00
2022-10-06T02:37:55.166Z,94991.00
2022-10-06T02:42:00.566Z,95007.00
2022-10-06T02:46:06.530Z,95007.00
2022-10-06T02:50:09.517Z,95008.00
2022-10-06T02:54:14.441Z,94995.00
2022-10-06T02:58:18.270Z,94998.00
2022-10-06T03:02:23.072Z,95013.00
2022-10-06T03:06:31.178Z,95019.00
2022-10-06T03:10:45.087Z,95018.00
2022-10-06T03:14:47.401Z,95005.00
2022-10-06T03:18:53.430Z,95028.00
2022-10-06T03:22:56.999Z,95018.00
2022-10-06T03:26:59.593Z,95026.00
2022-10-06T03:31:06.749Z,95035.00
2022-10-06T03:35:11.932Z,95041.00
2022-10-06T03:39:15.936Z,95030.00
2022-10-06T03:43:18.353Z,95035.00
2022-10-06T03:47:21.275Z,95044.00
2022-10-06T03:51:33.185Z,95053.00
2022-10-06T03:55:36.559Z,95058.00
2022-10-06T03:59:40.267Z,95054.00
2022-10-06T04:03:44.486Z,95064.00
2022-10-06T04:07:47.618Z,95057.00
2022-10-06T04:11:49.833Z,95076.00
2022-10-06T04:15:52.527Z,95080.00
2022-10-06T04:19:54.964Z,95081.00
2022-10-06T04:23:58.824Z,95092.00
2022-10-06T04:28:01.962Z,95086.00
2022-10-06T04:32:07.643Z,95097.00
2022-10-06T04:36:16.096Z,95105.00
2022-10-06T04:40:18.810Z,95105.00
2022-10-06T04:44:21.464Z,95108.00
2022-10-06T04:48:24.717Z,95112.00
2022-10-06T04:52:26.921Z,95113.00
2022-10-06T04:56:32.492Z,95126.00
2022-10-06T05:00:37.835Z,95119.00
2022-10-06T05:04:40.693Z,95117.00
2022-10-06T05:08:44.711Z,95135.00
2022-10-06T05:12:47.298Z,95137.00
2022-10-06T05:16:50.235Z,95135.00
2022-10-06T05:20:57.327Z,95142.00
2022-10-06T05:25:01.479Z,95154.00
2022-10-06T05:29:04.291Z,95149.00
2022-10-06T05:33:07.486Z,95146.00
2022-10-06T05:37:11.505Z,95158.00
2022-10-06T05:41:24.124Z,95153.00
2022-10-06T05:45:26.795Z,95156.00
2022-10-06T05:49:30.029Z,95160.00
2022-10-06T05:53:38.236Z,95162.00
2022-10-06T05:57:42.165Z,95169.00
2022-10-06T06:01:45.205Z,95181.00
2022-10-06T06:06:04.457Z,95179.00
2022-10-06T06:10:08.015Z,95183.00
2022-10-06T06:14:12.945Z,95185.00
2022-10-06T06:18:16.809Z,95190.00
2022-10-06T06:22:20.582Z,95195.00
2022-10-06T06:26:29.493Z,95194.00
2022-10-06T06:30:31.634Z,95196.00
2022-10-06T06:34:35.361Z,95212.00
2022-10-06T06:38:37.846Z,95215.00
2022-10-06T06:42:42.363Z,95218.00
2022-10-06T06:46:57.283Z,95225.00
2022-10-06T06:51:02.285Z,95225.00
2022-10-06T06:55:08.468Z,95242.00
2022-10-06T06:59:12.122Z,95236.00
2022-10-06T07:03:52.064Z,95243.00
2022-10-06T07:07:45.917Z,95255.00
2022-10-06T07:11:52.535Z,95253.00
2022-10-06T07:16:16.561Z,95249.00
2022-10-06T07:20:39.548Z,95256.00
2022-10-06T07:25:01.218Z,95265.00
2022-10-06T07:29:04.891Z,95264.00
2022-10-06T07:33:09.586Z,95278.00
2022-10-06T07:37:16.504Z,95263.00
2022-10-06T07:41:20.360Z,95275.00
2022-10-06T07:45:41.849Z,95284.00
2022-10-06T07:50:13.128Z,95278.00
2022-10-06T07:54:16.865Z,95289.00
2022-10-06T07:58:46.958Z,95292.00
2022-10-06T08:02:50.545Z,95299.00
2022-10-06T08:06:58.129Z,95303.00
2022-10-06T08:11:02.012Z,95310.00
2022-10-06T08:15:10.042Z,95312.00
2022-10-06T08:19:14.816Z,95317.00
2022-10-06T08:23:17.532Z,95313.00
2022-10-06T08:27:19.450Z,95318.00
2022-10-06T08:31:24.213Z,95331.00
2022-10-06T08:35:27.843Z,95333.00
2022-10-06T08:39:31.206Z,95330.00
2022-10-06T08:43:34.763Z,95337.00
2022-10-06T08:47:37.253Z,95337.00
2022-10-06T08:52:02.666Z,95339.00
2022-10-06T08:56:27.866Z,95348.00
2022-10-06T09:00:33.422Z,95351.00
2022-10-06T09:04:36.184Z,95344.00
2022-10-06T09:09:06.653Z,95357.00
2022-10-06T09:13:17.307Z,95353.00
2022-10-06T09:17:51.109Z,95348.00
2022-10-06T09:21:54.590Z,95360.00
2022-10-06T09:25:57.955Z,95368.00
2022-10-06T09:30:01.698Z,95359.00
2022-10-06T09:34:12.697Z,95386.00
2022-10-06T09:38:14.851Z,95376.00
2022-10-06T09:42:35.644Z,95372.00
2022-10-06T09:46:42.063Z,95377.00
2022-10-06T09:50:44.148Z,95386.00
2022-10-06T09:54:46.566Z,95383.00
2022-10-06T09:58:57.838Z,95379.00
2022-10-06T10:03:06.882Z,95378.00
2022-10-06T10:07:26.865Z,95381.00
2022-10-06T10:11:48.888Z,95398.00
2022-10-06T10:16:00.728Z,95388.00
2022-10-06T10:20:28.446Z,95405.00
2022-10-06T10:24:59.384Z,95400.00
2022-10-06T10:29:02.335Z,95407.00
2022-10-06T10:33:08.248Z,95415.00
2022-10-06T10:37:43.096Z,95405.00
2022-10-06T10:41:51.018Z,95397.00
2022-10-06T10:45:59.786Z,95405.00
2022-10-06T10:50:28.342Z,95414.00
2022-10-06T10:54:56.479Z,95414.00
2022-10-06T10:59:24.605Z,95415.00
2022-10-06T11:03:27.192Z,95415.00
2022-10-06T11:07:38.649Z,95406.00
2022-10-06T11:11:54.357Z,95408.00
2022-10-06T11:16:23.877Z,95409.00
2022-10-06T11:20:39.652Z,95404.00
2022-10-06T11:24:48.167Z,95408.00
2022-10-06T11:29:09.348Z,95400.00
2022-10-06T11:33:20.868Z,95398.00
2022-10-06T11:37:54.450Z,95392.00
2022-10-06T11:42:24.128Z,95395.00
2022-10-06T11:46:35.754Z,95406.00
2022-10-06T11:50:40.546Z,95402.00
2022-10-06T11:55:05.040Z,95398.00
2022-10-06T11:59:23.692Z,95401.00
2022-10-06T12:03:28.789Z,95392.00
2022-10-06T12:07:50.800Z,95396.00
2022-10-06T12:11:57.543Z,95396.00
2022-10-06T12:21:06.415Z,95383.00
2022-10-06T12:25:28.354Z,95375.00
2022-10-06T12:29:34.968Z,95374.00
2022-10-06T12:33:40.502Z,95377.00
2022-10-06T12:37:53.957Z,95378.00
2022-10-06T12:41:58.776Z,95379.00
2022-10-06T12:46:13.390Z,95379.00
2022-10-06T12:50:25.743Z,95375.00
2022-10-06T12:54:37.700Z,95382.00
2022-10-06T12:58:39.753Z,95383.00
2022-10-06T13:02:44.333Z,95363.00
2022-10-06T13:06:50.519Z,95383.00
2022-10-06T13:11:23.688Z,95372.00
2022-10-06T13:15:29.824Z,95379.00
2022-10-06T13:19:32.374Z,95376.00
2022-10-06T13:23:36.646Z,95383.00
2022-10-06T13:27:40.212Z,95375.00
2022-10-06T13:31:51.797Z,95374.00
2022-10-06T13:35:55.689Z,95372.00
2022-10-06T13:39:58.467Z,95373.00
2022-10-06T13:44:21.497Z,95386.00
2022-10-06T13:48:26.567Z,95384.00
2022-10-06T13:52:34.668Z,95386.00
2022-10-06T13:56:39.562Z,95370.00
2022-10-06T14:00:56.624Z,95371.00
2022-10-06T14:05:20.386Z,95375.00
2022-10-06T14:09:34.141Z,95378.00
2022-10-06T14:13:56.079Z,95373.00
2022-10-06T14:18:05.393Z,95371.00
2022-10-06T14:22:35.978Z,95379.00
2022-10-06T14:26:37.845Z,95383.00
2022-10-06T14:30:40.731Z,95383.00
2022-10-06T14:34:43.049Z,95380.00
2022-10-06T14:38:47.173Z,95392.00
2022-10-06T14:42:49.529Z,95384.00
2022-10-06T14:46:52.693Z,95391.00
2022-10-06T14:50:55.101Z,95385.00
2022-10-06T14:54:59.350Z,95392.00
2022-10-06T14:59:07.510Z,95388.00
2022-10-06T15:03:09.675Z,95392.00
2022-10-06T15:07:30.331Z,95388.00
2022-10-06T15:11:32.605Z,95397.00
2022-10-06T15:15:35.807Z,95392.00
2022-10-06T15:19:38.190Z,95393.00
2022-10-06T15:23:40.292Z,95403.00
2022-10-06T15:28:01.100Z,95397.00
2022-10-06T15:32:06.481Z,95402.00
2022-10-06T15:36:16.910Z,95407.00
2022-10-06T15:40:20.559Z,95403.00
2022-10-06T15:44:22.893Z,95410.00
2022-10-06T15:48:24.745Z,95405.00
2022-10-06T15:52:28.370Z,95397.00
2022-10-06T15:56:31.832Z,95399.00
2022-10-06T16:00:34.575Z,95407.00
2022-10-06T16:04:38.788Z,95408.00
2022-10-06T16:08:41.481Z,95406.00
2022-10-06T16:12:43.353Z,95416.00
2022-10-06T16:16:47.535Z,95420.00
2022-10-06T16:20:54.545Z,95414.00
2022-10-06T16:24:56.771Z,95417.00
2022-10-06T16:28:59.052Z,95435.00
2022-10-06T16:33:01.171Z,95426.00
2022-10-06T16:37:03.384Z,95434.00
2022-10-06T16:41:10.278Z,95445.00
2022-10-06T16:45:14.678Z,95448.00
2022-10-06T16:49:16.951Z,95442.00
2022-10-06T16:53:21.295Z,95444.00
2022-10-06T16:57:25.214Z,95445.00
2022-10-06T17:01:32.528Z,95450.00
2022-10-06T17:05:36.968Z,95451.00
2022-10-06T17:09:46.890Z,95450.00
2022-10-06T17:13:58.441Z,95452.00
2022-10-06T17:18:00.708Z,95452.00
2022-10-06T17:22:02.904Z,95463.00
2022-10-06T17:26:09.752Z,95472.00
2022-10-06T17:30:12.911Z,95469.00
2022-10-06T17:34:20.641Z,95472.00
2022-10-06T17:38:23.383Z,95470.00
2022-10-06T17:42:25.942Z,95479.00
2022-10-06T17:46:28.591Z,95470.00
2022-10-06T17:50:30.852Z,95465.00
2022-10-06T17:54:34.685Z,95473.00
2022-10-06T17:58:36.842Z,95464.00
2022-10-06T18:02:41.696Z,95466.00
2022-10-06T18:06:46.388Z,95469.00
2022-10-06T18:11:07.381Z,95478.00
2022-10-06T18:15:12.646Z,95470.00
2022-10-06T18:19:18.045Z,95465.00
2022-10-06T18:23:20.350Z,95469.00
2022-10-06T18:27:24.220Z,95470.00
2022-10-06T18:31:26.576Z,95466.00
2022-10-06T18:39:51.163Z,95470.00
2022-10-06T18:43:53.203Z,95476.00
2022-10-06T18:48:13.932Z,95474.00
2022-10-06T18:52:17.452Z,95481.00
2022-10-06T18:56:20.035Z,95470.00
2022-10-06T19:00:23.055Z,95482.00
2022-10-06T19:04:26.470Z,95488.00
2022-10-06T19:08:28.603Z,95477.00
2022-10-06T19:12:30.829Z,95486.00
2022-10-06T19:16:33.426Z,95477.00
2022-10-06T19:20:36.766Z,95482.00
2022-10-06T19:24:41.702Z,95490.00
2022-10-06T19:28:44.162Z,95479.00
2022-10-06T19:32:46.248Z,95482.00
2022-10-06T19:36:58.549Z,95491.00
2022-10-06T19:41:21.948Z,95487.00
2022-10-06T19:45:23.861Z,95495.00
2022-10-06T19:49:27.444Z,95497.00
2022-10-06T19:53:30.653Z,95502.00
2022-10-06T19:57:33.104Z,95501.00
2022-10-06T20:01:37.848Z,95500.00
2022-10-06T20:05:39.985Z,95505.00
2022-10-06T20:09:44.270Z,95510.00
2022-10-06T20:13:47.935Z,95515.00
2022-10-06T20:17:50.477Z,95518.00
2022-10-06T20:21:53.720Z,95521.00
2022-10-06T20:25:55.854Z,95515.00
2022-10-06T20:29:58.310Z,95516.00
2022-10-06T20:34:04.782Z,95522.00
2022-10-06T20:38:32.043Z,95525.00
2022-10-06T20:42:34.312Z,95519.00
2022-10-06T20:46:38.716Z,95521.00
2022-10-06T20:50:42.095Z,95523.00
2022-10-06T20:54:44.438Z,95515.00
2022-10-06T20:58:46.570Z,95520.00
2022-10-06T21:02:50.899Z,95505.00
2022-10-06T21:06:53.411Z,95513.00
2022-10-06T21:11:01.793Z,95514.00
2022-10-06T21:15:04.370Z,95499.00
2022-10-06T21:19:08.364Z,95497.00
2022-10-06T21:23:13.214Z,95507.00
2022-10-06T21:27:17.265Z,95504.00
2022-10-06T21:31:22.815Z,95496.00
2022-10-06T21:35:25.189Z,95494.00
2022-10-06T21:39:30.915Z,95493.00
2022-10-06T21:43:33.151Z,95486.00
2022-10-06T21:47:35.516Z,95484.00
2022-10-06T21:51:40.039Z,95484.00
2022-10-06T21:55:42.265Z,95473.00
2022-10-06T21:59:45.580Z,95481.00
2022-10-06T22:03:48.671Z,95487.00
2022-10-06T22:07:51.494Z,95476.00
2022-10-06T22:11:53.843Z,95476.00
2022-10-06T22:15:58.150Z,95467.00
2022-10-06T22:20:00.449Z,95471.00
2022-10-06T22:24:05.947Z,95476.00
2022-10-06T22:28:09.144Z,95460.00
2022-10-06T22:32:11.720Z,95462.00
2022-10-06T22:36:15.386Z,95448.00
2022-10-06T22:40:17.640Z,95458.00
2022-10-06T22:44:19.844Z,95447.00
2022-10-06T22:48:22.444Z,95450.00
2022-10-06T22:52:24.481Z,95442.00
2022-10-06T22:56:28.297Z,95431.00
2022-10-06T23:00:31.814Z,95436.00
2022-10-06T23:04:33.837Z,95430.00
2022-10-06T23:08:37.389Z,95427.00
2022-10-06T23:12:39.915Z,95422.00
2022-10-06T23:16:42.865Z,95420.00
2022-10-06T23:20:45.744Z,95411.00
2022-10-06T23:24:49.585Z,95409.00
2022-10-06T23:28:59.800Z,95418.00
2022-10-06T23:33:03.202Z,95419.00
2022-10-06T23:37:05.424Z,95403.00
2022-10-06T23:41:08.793Z,95403.00
2022-10-06T23:45:11.375Z,95418.00
2022-10-06T23:49:13.442Z,95411.00
2022-10-06T23:53:15.618Z,95413.00
2022-10-06T23:57:18.039Z,95403.00
